Time;durP1;ratioP1;P1;durP2;ratioP2;P2;SDS_P1;SDS_P2;PMS_P1;PMS_P2;Temp;Humidity;BMP_temperature;BMP_pressure;BME280_temperature;BME280_humidity;BME280_pressure;Samples;Min_cycle;Max_cycle;Signal;HPM_P1;HPM_P2
2021/11/22 00:01:36;;;;;;;45.78;30.37;;;;;;;6.49;80.76;96070.14;1765204;81;21320;-83
2021/11/22 00:04:02;;;;;;;42.80;29.87;;;;;;;6.46;80.72;96068.70;1764898;81;21081;-83
2021/11/22 00:06:27;;;;;;;44.08;29.37;;;;;;;6.44;80.66;96072.41;1765003;81;21042;-83
2021/11/22 00:08:53;;;;;;;42.83;28.70;;;;;;;6.43;80.61;96079.36;1764004;81;21038;-83
2021/11/22 00:11:19;;;;;;;39.80;27.73;;;;;;;6.46;80.81;96080.80;1734470;81;20924;-83
2021/11/22 00:13:45;;;;;;;41.83;29.30;;;;;;;6.47;80.71;96085.80;1762398;81;21396;-83
2021/11/22 00:16:10;;;;;;;42.55;29.23;;;;;;;6.48;80.70;96097.73;1752125;80;20985;-83
2021/11/22 00:18:36;;;;;;;150.90;66.62;;;;;;;6.47;80.58;96091.44;1763763;81;20971;-83
2021/11/22 00:21:02;;;;;;;60.67;34.03;;;;;;;6.45;80.65;96095.48;1763943;81;21026;-83
2021/11/22 00:23:28;;;;;;;49.73;31.82;;;;;;;6.38;80.44;96098.89;1795166;80;20993;-83
2021/11/22 00:25:53;;;;;;;62.48;38.28;;;;;;;6.27;80.52;96099.52;1795237;80;21050;-83
2021/11/22 00:28:19;;;;;;;48.63;31.55;;;;;;;6.23;80.42;96101.30;1795174;80;21403;-83
2021/11/22 00:30:45;;;;;;;42.27;28.55;;;;;;;6.22;80.71;96097.92;1795253;80;21009;-83
2021/11/22 00:33:11;;;;;;;42.03;28.12;;;;;;;6.26;80.91;96099.20;1795288;80;21051;-83
2021/11/22 00:35:38;;;;;;;39.55;28.52;;;;;;;6.29;81.08;96100.65;1795195;80;21017;-83
2021/11/22 00:38:06;;;;;;;42.03;30.62;;;;;;;6.32;81.15;96097.73;1795016;80;20964;-83
2021/11/22 00:40:34;;;;;;;46.13;31.37;;;;;;;6.30;80.96;96103.06;1795010;80;20996;-82
2021/11/22 00:43:01;;;;;;;49.48;32.35;;;;;;;6.27;80.97;96102.10;1795188;80;21079;-83
2021/11/22 00:45:29;;;;;;;42.90;29.67;;;;;;;6.28;80.94;96105.00;1794961;80;20997;-83
2021/11/22 00:47:56;;;;;;;38.25;26.62;;;;;;;6.30;80.92;96108.70;1795181;80;20988;-83
2021/11/22 00:50:22;;;;;;;36.90;26.00;;;;;;;6.32;81.03;96108.06;1795210;80;20989;-83
2021/11/22 00:52:48;;;;;;;40.65;27.82;;;;;;;6.33;81.05;96109.19;1795228;80;20961;-83
2021/11/22 00:55:14;;;;;;;42.33;27.32;;;;;;;6.33;80.94;96110.96;1795150;80;21079;-83
2021/11/22 00:57:39;;;;;;;40.35;28.25;;;;;;;6.30;80.97;96113.39;1795205;80;20945;-82
2021/11/22 01:00:09;;;;;;;41.25;28.47;;;;;;;6.30;81.18;96117.25;1795332;80;21040;-83
2021/11/22 01:02:35;;;;;;;43.48;28.65;;;;;;;6.31;81.14;96116.77;1795140;80;21003;-83
2021/11/22 01:05:05;;;;;;;43.42;28.65;;;;;;;6.30;81.13;96111.29;1795205;80;20992;-83
2021/11/22 01:07:31;;;;;;;40.85;28.50;;;;;;;6.31;81.21;96111.61;1795188;80;21036;-83
2021/11/22 01:09:58;;;;;;;39.38;27.62;;;;;;;6.32;81.24;96115.80;1794995;80;21385;-83
2021/11/22 01:12:28;;;;;;;42.88;27.80;;;;;;;6.35;81.45;96112.12;1795178;80;21052;-83
2021/11/22 01:14:55;;;;;;;41.50;29.75;;;;;;;6.36;81.27;96113.24;1794979;80;20949;-83
2021/11/22 01:17:21;;;;;;;45.38;29.95;;;;;;;6.35;81.36;96109.05;1777055;79;21231;-83
2021/11/22 01:19:51;;;;;;;40.52;27.95;;;;;;;6.35;81.42;96112.92;1789769;80;21396;-83
2021/11/22 01:22:14;;;;;;;44.40;29.92;;;;;;;6.33;81.41;96104.52;1794626;80;20981;-83
2021/11/22 01:24:40;;;;;;;45.28;31.27;;;;;;;6.31;81.48;96104.67;1795519;80;20953;-83
2021/11/22 01:27:06;;;;;;;43.80;29.15;;;;;;;6.27;80.85;96109.84;1795302;80;20970;-82
2021/11/22 01:29:32;;;;;;;51.20;33.13;;;;;;;6.22;81.10;96119.85;1795543;80;21052;-83
2021/11/22 01:31:58;;;;;;;48.10;31.85;;;;;;;6.25;80.87;96123.88;1795258;80;21063;-82
2021/11/22 01:34:24;;;;;;;48.33;32.75;;;;;;;6.26;80.85;96113.39;1795326;80;20960;-83
2021/11/22 01:36:49;;;;;;;46.80;31.40;;;;;;;6.26;80.85;96113.39;1795454;80;20985;-83
2021/11/22 01:39:15;;;;;;;49.45;33.65;;;;;;;6.27;80.38;96120.65;1795312;80;22313;-83
2021/11/22 01:41:41;;;;;;;51.92;33.83;;;;;;;6.23;80.71;96133.55;1795538;80;21024;-83
2021/11/22 01:44:07;;;;;;;46.08;31.95;;;;;;;6.21;80.74;96127.27;1794973;80;21130;-83
2021/11/22 01:46:34;;;;;;;45.73;30.37;;;;;;;6.21;80.60;96134.20;1794882;80;21044;-83
2021/11/22 01:49:03;;;;;;;51.77;34.08;;;;;;;6.23;80.80;96138.23;1766678;80;21403;-83
2021/11/22 01:51:28;;;;;;;48.17;33.13;;;;;;;6.24;80.47;96135.17;1795172;80;20992;-83
2021/11/22 01:53:53;;;;;;;47.20;33.45;;;;;;;6.27;80.73;96133.55;1795487;80;21364;-83
2021/11/22 01:56:20;;;;;;;47.50;33.65;;;;;;;6.25;80.53;96122.59;1795538;80;20973;-83
2021/11/22 01:58:47;;;;;;;45.95;31.70;;;;;;;6.26;80.47;96128.87;1795440;80;20969;-83
2021/11/22 02:01:13;;;;;;;46.33;30.72;;;;;;;6.26;80.65;96127.59;1795398;80;20997;-83
2021/11/22 02:03:39;;;;;;;48.95;33.10;;;;;;;6.24;80.68;96132.10;1795450;80;21328;-82
2021/11/22 02:06:05;;;;;;;54.20;34.25;;;;;;;6.24;80.53;96134.69;1795451;80;21064;-83
2021/11/22 02:08:31;;;;;;;45.38;32.28;;;;;;;6.22;80.45;96128.87;1795075;80;21486;-83
2021/11/22 02:10:57;;;;;;;50.88;33.92;;;;;;;6.24;80.28;96128.72;1797876;80;21050;-82
2021/11/22 02:13:23;;;;;;;52.25;33.67;;;;;;;6.28;80.36;96137.26;1798384;80;21473;-83
2021/11/22 02:15:49;;;;;;;47.45;32.53;;;;;;;6.32;80.35;96137.25;1798388;80;21008;-83
2021/11/22 02:18:18;;;;;;;46.08;31.50;;;;;;;6.36;80.45;96147.28;1798422;80;21036;-83
2021/11/22 02:20:42;;;;;;;46.88;32.70;;;;;;;6.34;80.48;96143.54;1797921;80;21000;-83
2021/11/22 02:23:09;;;;;;;48.70;32.28;;;;;;;6.31;80.49;96143.86;1798358;80;20996;-83
2021/11/22 02:25:38;;;;;;;49.65;33.78;;;;;;;6.26;80.45;96152.58;1798385;80;20929;-82
2021/11/22 02:28:04;;;;;;;48.78;32.60;;;;;;;6.25;80.61;96163.39;1798348;80;20961;-83
2021/11/22 02:30:34;;;;;;;47.53;33.00;;;;;;;6.27;80.55;96162.73;1798393;80;20984;-83
2021/11/22 02:33:02;;;;;;;46.63;32.42;;;;;;;6.26;80.46;96165.00;1798216;80;21058;-82
2021/11/22 02:35:28;;;;;;;53.73;34.67;;;;;;;6.33;80.63;96164.67;1798275;80;20969;-82
2021/11/22 02:37:54;;;;;;;50.55;33.42;;;;;;;6.35;80.55;96165.02;1798414;80;20996;-83
2021/11/22 02:40:21;;;;;;;51.42;34.80;;;;;;;6.32;80.51;96163.54;1798293;80;20984;-83
2021/11/22 02:42:46;;;;;;;47.05;31.68;;;;;;;6.31;80.32;96163.22;1798333;80;20945;-83
2021/11/22 02:45:16;;;;;;;54.50;36.03;;;;;;;6.27;80.43;96159.35;1798421;80;20984;-83
2021/11/22 02:47:42;;;;;;;56.90;36.70;;;;;;;6.24;79.97;96157.09;1798369;80;20984;-83
2021/11/22 02:50:11;;;;;;;49.48;34.55;;;;;;;6.20;80.03;96156.62;1792229;80;21021;-83
2021/11/22 02:52:39;;;;;;;51.95;34.08;;;;;;;6.21;80.18;96157.42;1782500;80;21359;-83
2021/11/22 02:55:06;;;;;;;52.33;34.45;;;;;;;6.20;80.26;96155.33;1760928;81;20977;-83
2021/11/22 02:57:32;;;;;;;55.00;34.30;;;;;;;6.19;80.36;96152.42;1760953;81;21065;-83
2021/11/22 02:59:58;;;;;;;50.48;33.02;;;;;;;6.16;80.35;96151.43;1760573;81;21080;-83
2021/11/22 03:02:24;;;;;;;57.93;34.20;;;;;;;6.14;80.27;96162.88;1761029;81;21284;-82
2021/11/22 03:04:52;;;;;;;54.88;35.48;;;;;;;6.11;80.39;96164.49;1760976;81;21507;-83
2021/11/22 03:07:18;;;;;;;52.80;34.80;;;;;;;6.12;80.27;96168.69;1760899;81;21446;-83
2021/11/22 03:09:44;;;;;;;54.00;34.75;;;;;;;6.09;80.11;96169.01;1759328;81;21029;-83
2021/11/22 03:12:11;;;;;;;52.33;37.15;;;;;;;6.02;80.03;96175.30;1757562;82;21151;-83
2021/11/22 03:14:38;;;;;;;57.60;38.63;;;;;;;5.98;80.19;96173.48;1757324;81;21473;-83
2021/11/22 03:17:04;;;;;;;56.00;36.65;;;;;;;5.99;80.37;96177.69;1757430;82;20981;-82
2021/11/22 03:19:30;;;;;;;58.65;38.92;;;;;;;6.02;80.51;96177.88;1757517;82;21008;-83
2021/11/22 03:21:56;;;;;;;59.23;37.40;;;;;;;6.05;80.63;96176.27;1757469;82;20985;-82
2021/11/22 03:24:23;;;;;;;57.23;38.30;;;;;;;6.06;80.72;96174.48;1757262;82;21065;-83
2021/11/22 03:26:49;;;;;;;62.25;39.03;;;;;;;6.04;80.71;96178.52;1757628;81;21064;-83
2021/11/22 03:29:14;;;;;;;63.50;40.08;;;;;;;6.04;80.62;96184.97;1757414;81;21035;-83
2021/11/22 03:31:40;;;;;;;57.62;38.58;;;;;;;6.06;80.65;96187.39;1757532;81;21280;-83
2021/11/22 03:34:07;;;;;;;58.35;38.80;;;;;;;6.07;80.63;96189.80;1757529;82;20957;-83
2021/11/22 03:36:34;;;;;;;63.75;42.23;;;;;;;6.07;80.62;96190.29;1757466;82;20942;-82
2021/11/22 03:39:01;;;;;;;58.45;38.78;;;;;;;6.07;80.71;96191.09;1757505;82;20934;-83
2021/11/22 03:41:29;;;;;;;59.75;39.63;;;;;;;6.07;80.75;96182.55;1757553;81;21033;-83
2021/11/22 03:44:01;;;;;;;61.90;39.27;;;;;;;6.08;80.89;96184.97;1757394;82;21466;-83
2021/11/22 03:46:26;;;;;;;54.67;37.28;;;;;;;6.09;80.79;96187.06;1757617;82;21045;-83
2021/11/22 03:48:52;;;;;;;61.73;39.53;;;;;;;6.09;80.79;96187.06;1757471;82;20985;-83
2021/11/22 03:51:18;;;;;;;62.00;40.00;;;;;;;6.12;80.80;96181.58;1777862;79;21044;-83
2021/11/22 03:53:44;;;;;;;61.65;40.23;;;;;;;6.10;80.67;96186.91;1783656;80;20997;-83
2021/11/22 03:56:12;;;;;;;59.00;39.33;;;;;;;6.09;80.71;96193.52;1795128;80;20981;-82
2021/11/22 03:58:38;;;;;;;57.75;38.60;;;;;;;6.06;80.76;96202.38;1795108;80;21008;-83
2021/11/22 04:01:04;;;;;;;56.05;37.23;;;;;;;6.02;80.82;96193.34;1795295;80;21048;-83
2021/11/22 04:03:30;;;;;;;55.88;36.40;;;;;;;5.97;80.79;96203.31;1766339;80;21032;-83
2021/11/22 04:05:55;;;;;;;61.48;38.70;;;;;;;5.94;80.95;96200.56;1795056;80;20918;-83
2021/11/22 04:08:21;;;;;;;60.38;39.75;;;;;;;5.95;80.95;96204.76;1795202;80;20984;-83
2021/11/22 04:10:47;;;;;;;58.92;38.10;;;;;;;5.96;80.92;96202.98;1770430;80;21456;-83
2021/11/22 04:13:13;;;;;;;56.53;38.95;;;;;;;5.98;80.94;96207.02;1698321;84;21023;-83
2021/11/22 04:15:39;;;;;;;62.70;40.95;;;;;;;5.97;80.85;96205.41;1745597;82;21030;-83
2021/11/22 04:18:05;;;;;;;59.10;39.08;;;;;;;5.94;80.84;96210.08;1715860;84;20936;-83
2021/11/22 04:20:31;;;;;;;57.75;38.80;;;;;;;5.90;80.87;96218.62;1745506;82;21015;-83
2021/11/22 04:22:56;;;;;;;61.60;38.15;;;;;;;5.87;81.00;96220.67;1745582;82;21370;-82
2021/11/22 04:25:24;;;;;;;56.48;37.23;;;;;;;5.85;81.04;96222.09;1745333;82;21078;-83
2021/11/22 04:27:50;;;;;;;61.18;38.30;;;;;;;5.83;81.21;96209.84;1745731;82;21449;-83
2021/11/22 04:30:17;;;;;;;57.78;38.55;;;;;;;5.83;81.21;96209.84;1745596;82;21062;-83
2021/11/22 04:32:43;;;;;;;62.80;39.58;;;;;;;5.91;81.32;96220.71;1745384;82;20999;-83
2021/11/22 04:35:11;;;;;;;62.50;40.92;;;;;;;5.94;81.36;96222.97;1745412;82;20963;-83
2021/11/22 04:37:37;;;;;;;59.45;39.92;;;;;;;5.93;81.24;96226.03;1745402;82;20975;-81
2021/11/22 04:40:05;;;;;;;61.53;39.65;;;;;;;5.89;81.08;96232.45;1745536;82;21032;-81
2021/11/22 04:42:31;;;;;;;57.10;38.48;;;;;;;5.87;81.34;96242.11;1745285;82;21098;-80
2021/11/22 04:44:57;;;;;;;64.90;40.48;;;;;;;5.86;81.65;96234.05;1745366;82;21118;-80
2021/11/22 04:47:23;;;;;;;58.33;38.48;;;;;;;5.86;81.65;96234.05;1745485;82;20924;-81
2021/11/22 04:49:50;;;;;;;63.50;42.23;;;;;;;5.92;81.32;96237.31;1743736;81;21091;-81
2021/11/22 04:52:16;;;;;;;58.83;40.25;;;;;;;5.90;81.22;96243.11;1728057;82;21382;-81
2021/11/22 04:54:42;;;;;;;59.63;38.70;;;;;;;5.89;81.33;96241.95;1745243;82;21007;-80
2021/11/22 04:57:08;;;;;;;59.13;39.27;;;;;;;5.89;81.58;96247.11;1728677;82;21023;-81
2021/11/22 04:59:34;;;;;;;66.00;40.67;;;;;;;5.89;81.66;96259.52;1745868;82;21007;-81
2021/11/22 05:02:00;;;;;;;75.72;44.80;;;;;;;5.89;81.78;96256.94;1745727;82;20971;-81
2021/11/22 05:04:26;;;;;;;84.25;49.60;;;;;;;5.88;81.54;96255.33;1745688;82;20956;-81
2021/11/22 05:06:51;;;;;;;69.97;45.03;;;;;;;5.88;81.51;96257.91;1745784;82;21040;-81
2021/11/22 05:09:19;;;;;;;105.90;51.37;;;;;;;5.88;81.59;96257.09;1745720;82;21279;-81
2021/11/22 05:11:46;;;;;;;65.83;42.55;;;;;;;5.88;81.71;96250.17;1793758;80;21071;-81
2021/11/22 05:14:12;;;;;;;65.78;41.02;;;;;;;5.88;81.69;96248.88;1795203;80;21145;-81
2021/11/22 05:16:38;;;;;;;62.43;39.67;;;;;;;5.83;81.59;96245.94;1766195;80;21457;-81
2021/11/22 05:19:04;;;;;;;62.75;40.15;;;;;;;5.79;81.60;96251.57;1795291;80;20990;-81
2021/11/22 05:21:31;;;;;;;63.48;39.53;;;;;;;5.77;81.74;96252.20;1795288;80;20962;-81
2021/11/22 05:23:59;;;;;;;70.28;40.25;;;;;;;5.77;81.86;96258.17;1794878;80;21406;-81
2021/11/22 05:26:25;;;;;;;70.57;41.40;;;;;;;5.79;81.87;96258.02;1795106;80;21361;-81
2021/11/22 05:28:51;;;;;;;72.53;42.25;;;;;;;5.80;81.71;96259.14;1795154;80;21015;-81
2021/11/22 05:31:16;;;;;;;62.70;40.10;;;;;;;5.80;81.86;96262.20;1795157;80;20972;-81
2021/11/22 05:33:42;;;;;;;59.42;40.12;;;;;;;5.80;81.95;96263.02;1795184;80;20959;-81
2021/11/22 05:36:08;;;;;;;64.58;39.65;;;;;;;5.82;82.14;96272.69;1795141;80;21042;-81
2021/11/22 05:38:34;;;;;;;67.42;41.02;;;;;;;5.81;82.12;96272.36;1795208;80;21337;-81
2021/11/22 05:41:00;;;;;;;64.50;41.40;;;;;;;5.79;82.01;96276.06;1795112;80;21394;-81
2021/11/22 05:43:26;;;;;;;61.80;40.98;;;;;;;5.78;82.11;96275.26;1795009;80;20924;-81
2021/11/22 05:45:52;;;;;;;59.93;39.18;;;;;;;5.84;82.14;96284.94;1795265;80;21354;-81
2021/11/22 05:48:19;;;;;;;60.20;39.50;;;;;;;5.80;81.96;96282.83;1766555;80;20923;-81
2021/11/22 05:50:52;;;;;;;63.63;40.52;;;;;;;5.78;82.12;96280.89;1795209;80;21339;-81
2021/11/22 05:53:18;;;;;;;59.03;38.85;;;;;;;5.80;82.22;96282.35;1794726;80;21326;-83
2021/11/22 05:55:50;;;;;;;61.42;39.35;;;;;;;5.78;82.26;96288.14;1795415;80;20989;-83
2021/11/22 05:58:14;;;;;;;63.78;39.45;;;;;;;5.73;82.29;96299.41;1794815;80;21027;-83
2021/11/22 06:00:40;;;;;;;60.65;38.30;;;;;;;5.71;82.36;96294.89;1795003;80;20964;-83
2021/11/22 06:03:06;;;;;;;54.60;37.28;;;;;;;5.70;82.23;96294.57;1795322;80;21063;-83
2021/11/22 06:05:32;;;;;;;55.12;36.83;;;;;;;5.70;82.26;96299.24;1795169;80;21026;-83
2021/11/22 06:07:58;;;;;;;60.83;39.25;;;;;;;5.71;82.24;96298.77;1795350;80;21035;-82
2021/11/22 06:10:25;;;;;;;63.68;41.45;;;;;;;5.72;82.30;96310.69;1795977;80;21043;-83
2021/11/22 06:12:51;;;;;;;55.15;38.73;;;;;;;5.70;82.25;96308.75;1797944;80;21412;-83
2021/11/22 06:15:17;;;;;;;60.88;38.78;;;;;;;5.69;82.45;96316.12;1797881;80;21089;-83
2021/11/22 06:17:42;;;;;;;62.83;39.48;;;;;;;5.69;82.56;96326.44;1797927;80;20975;-83
2021/11/22 06:20:09;;;;;;;62.43;39.20;;;;;;;5.69;82.56;96326.44;1798089;80;21271;-83
2021/11/22 06:22:35;;;;;;;63.92;41.37;;;;;;;5.71;82.65;96325.34;1797933;80;20967;-83
2021/11/22 06:25:01;;;;;;;62.17;41.10;;;;;;;5.72;82.56;96330.83;1797926;80;21082;-82
2021/11/22 06:27:27;;;;;;;66.10;42.62;;;;;;;5.77;82.81;96338.58;1798081;80;20947;-83
2021/11/22 06:29:53;;;;;;;69.70;45.95;;;;;;;5.83;82.90;96337.48;1797871;80;20998;-82
2021/11/22 06:32:19;;;;;;;72.15;47.40;;;;;;;5.82;82.89;96337.16;1798187;80;21077;-83
2021/11/22 06:34:45;;;;;;;71.55;47.17;;;;;;;5.78;82.84;96342.30;1797699;80;20959;-82
2021/11/22 06:37:11;;;;;;;76.37;48.75;;;;;;;5.76;83.07;96350.66;1797976;80;21006;-83
2021/11/22 06:39:37;;;;;;;74.05;49.30;;;;;;;5.80;83.11;96353.26;1798098;80;20990;-83
2021/11/22 06:42:04;;;;;;;69.77;44.35;;;;;;;5.84;83.01;96351.98;1797929;80;20979;-83
2021/11/22 06:44:30;;;;;;;69.20;43.25;;;;;;;5.83;82.66;96358.59;1797760;80;21100;-82
2021/11/22 06:46:55;;;;;;;64.40;40.73;;;;;;;5.85;82.78;96363.11;1797917;80;21014;-83
2021/11/22 06:49:21;;;;;;;65.35;41.23;;;;;;;5.88;82.96;96366.70;1797933;80;21082;-83
2021/11/22 06:51:48;;;;;;;60.98;39.63;;;;;;;5.91;83.03;96371.09;1797872;80;21317;-83
2021/11/22 06:54:15;;;;;;;63.02;41.53;;;;;;;5.91;82.85;96374.95;1797840;80;20999;-83
2021/11/22 06:56:42;;;;;;;60.63;38.98;;;;;;;5.91;82.92;96374.95;1797991;80;21029;-82
2021/11/22 06:59:08;;;;;;;53.80;36.08;;;;;;;5.89;82.89;96374.27;1797959;80;21042;-83
2021/11/22 07:01:34;;;;;;;57.43;35.08;;;;;;;5.92;82.89;96375.28;1798043;80;21002;-83
2021/11/22 07:04:00;;;;;;;59.03;41.05;;;;;;;5.94;82.80;96376.42;1797892;80;21009;-83
2021/11/22 07:06:26;;;;;;;58.40;40.25;;;;;;;5.95;82.76;96376.75;1797715;80;21282;-82
2021/11/22 07:08:51;;;;;;;60.63;42.03;;;;;;;5.92;82.88;96380.44;1797985;80;20994;-83
2021/11/22 07:11:17;;;;;;;82.97;53.13;;;;;;;5.92;82.93;96384.80;1796418;80;21109;-83
2021/11/22 07:13:44;;;;;;;76.90;48.78;;;;;;;5.86;82.97;96379.74;1766364;80;21101;-83
2021/11/22 07:16:09;;;;;;;123.72;61.90;;;;;;;5.90;83.10;96390.11;1794918;80;21030;-83
2021/11/22 07:18:35;;;;;;;120.28;58.45;;;;;;;5.93;83.09;96386.41;1795074;80;21342;-83
2021/11/22 07:21:01;;;;;;;100.22;54.10;;;;;;;5.96;83.19;96389.97;1781487;79;20932;-83
2021/11/22 07:23:27;;;;;;;115.70;60.10;;;;;;;5.99;83.07;96391.75;1794811;80;20983;-82
2021/11/22 07:25:54;;;;;;;90.60;51.08;;;;;;;5.95;82.88;96386.58;1794910;80;21453;-82
2021/11/22 07:28:21;;;;;;;64.97;39.10;;;;;;;5.94;83.24;96392.70;1795194;80;20991;-83
2021/11/22 07:30:47;;;;;;;63.52;38.73;;;;;;;5.93;83.16;96398.82;1795172;80;20920;-83
2021/11/22 07:33:13;;;;;;;62.73;40.03;;;;;;;5.88;83.37;96401.02;1795199;80;21388;-83
2021/11/22 07:35:39;;;;;;;59.98;38.58;;;;;;;5.87;83.22;96406.34;1795280;80;20959;-83
2021/11/22 07:38:05;;;;;;;55.90;36.98;;;;;;;5.89;83.24;96410.86;1795063;80;20971;-82
2021/11/22 07:40:31;;;;;;;58.90;38.63;;;;;;;5.89;83.04;96414.73;1795260;80;21061;-83
2021/11/22 07:42:57;;;;;;;57.75;38.40;;;;;;;5.87;83.08;96417.46;1795197;80;21008;-83
2021/11/22 07:45:24;;;;;;;57.13;35.85;;;;;;;5.92;83.35;96420.90;1795101;80;21007;-83
2021/11/22 07:47:50;;;;;;;54.75;34.55;;;;;;;5.95;83.31;96422.69;1795127;80;20987;-83
2021/11/22 07:50:22;;;;;;;54.18;35.85;;;;;;;5.95;83.37;96423.98;1792548;80;20959;-83
2021/11/22 07:52:48;;;;;;;59.93;35.50;;;;;;;5.96;83.54;96420.44;1794980;80;21070;-83
2021/11/22 07:55:14;;;;;;;55.12;34.20;;;;;;;5.95;83.52;96420.11;1795225;80;20975;-82
2021/11/22 07:57:41;;;;;;;58.15;35.08;;;;;;;5.99;83.67;96421.90;1795022;80;20920;-83
2021/11/22 08:00:09;;;;;;;56.95;36.42;;;;;;;6.08;83.77;96424.06;1766481;80;20956;-83
2021/11/22 08:02:35;;;;;;;50.28;34.75;;;;;;;6.17;83.86;96421.83;1766336;80;21051;-83
2021/11/22 08:05:03;;;;;;;53.68;34.00;;;;;;;6.24;83.77;96426.73;1795148;80;20979;-83
2021/11/22 08:07:29;;;;;;;54.15;34.75;;;;;;;6.28;83.54;96431.90;1795180;80;20995;-82
2021/11/22 08:09:59;;;;;;;56.63;36.20;;;;;;;6.26;83.28;96435.92;1766627;80;20991;-82
2021/11/22 08:12:27;;;;;;;55.58;36.08;;;;;;;6.23;83.40;96441.41;1795106;80;21008;-83
2021/11/22 08:14:56;;;;;;;61.37;37.17;;;;;;;6.23;83.25;96450.44;1795045;80;21101;-83
2021/11/22 08:17:23;;;;;;;58.63;36.95;;;;;;;6.23;83.26;96452.20;1795004;80;21360;-83
2021/11/22 08:19:49;;;;;;;56.00;37.25;;;;;;;6.27;83.24;96450.45;1792612;79;21322;-83
2021/11/22 08:22:14;;;;;;;54.67;34.92;;;;;;;6.31;83.10;96454.81;1783972;80;20920;-83
2021/11/22 08:24:40;;;;;;;53.20;36.45;;;;;;;6.30;82.87;96456.59;1795181;80;21371;-83
2021/11/22 08:27:06;;;;;;;55.40;35.40;;;;;;;6.32;83.01;96461.59;1795267;80;21046;-82
2021/11/22 08:29:32;;;;;;;55.48;36.08;;;;;;;6.29;83.00;96460.12;1795110;80;21026;-83
2021/11/22 08:31:58;;;;;;;53.75;35.95;;;;;;;6.27;83.02;96465.93;1795061;80;20999;-83
2021/11/22 08:34:25;;;;;;;52.93;34.48;;;;;;;6.25;83.13;96458.83;1795120;80;20995;-82
2021/11/22 08:36:50;;;;;;;47.55;31.68;;;;;;;6.24;83.01;96462.37;1795293;80;21353;-83
2021/11/22 08:39:16;;;;;;;47.85;30.08;;;;;;;6.25;83.04;96467.05;1795082;80;21004;-83
2021/11/22 08:41:42;;;;;;;47.62;29.30;;;;;;;6.26;83.12;96461.73;1795257;80;21314;-83
2021/11/22 08:44:08;;;;;;;41.53;26.48;;;;;;;6.30;83.39;96464.81;1795326;80;20987;-83
2021/11/22 08:46:36;;;;;;;36.33;24.92;;;;;;;6.35;83.52;96466.47;1795269;80;20997;-83
2021/11/22 08:49:03;;;;;;;37.60;24.05;;;;;;;6.34;83.39;96459.66;1795012;80;21006;-82
2021/11/22 08:51:29;;;;;;;38.70;25.72;;;;;;;6.31;83.42;96463.84;1795123;80;20939;-83
2021/11/22 08:53:54;;;;;;;36.53;25.97;;;;;;;6.32;83.64;96465.46;1792571;80;21103;-82
2021/11/22 08:56:20;;;;;;;39.73;29.95;;;;;;;6.37;83.55;96467.61;1795247;80;20995;-83
2021/11/22 08:58:47;;;;;;;39.85;26.23;;;;;;;6.42;83.56;96467.95;1795444;80;20975;-83
2021/11/22 09:01:13;;;;;;;42.88;26.90;;;;;;;6.45;83.49;96471.02;1795392;80;21002;-83
2021/11/22 09:03:39;;;;;;;39.83;26.50;;;;;;;6.49;83.65;96471.03;1795322;80;20955;-83
2021/11/22 09:06:05;;;;;;;39.80;26.35;;;;;;;6.53;83.80;96470.27;1795078;80;21038;-83
2021/11/22 09:08:31;;;;;;;38.88;25.68;;;;;;;6.57;84.01;96476.73;1795078;80;21006;-83
2021/11/22 09:10:57;;;;;;;41.68;26.62;;;;;;;6.59;83.87;96482.06;1795158;80;21311;-82
2021/11/22 09:13:23;;;;;;;38.33;25.97;;;;;;;6.59;83.79;96479.48;1795301;80;21010;-83
2021/11/22 09:15:49;;;;;;;45.48;29.60;;;;;;;6.61;83.55;96484.49;1795223;80;21026;-83
2021/11/22 09:18:14;;;;;;;48.48;30.57;;;;;;;6.58;83.57;96488.67;1795236;80;20935;-83
2021/11/22 09:20:41;;;;;;;48.85;30.15;;;;;;;6.51;83.33;96485.91;1782277;79;21010;-83
2021/11/22 09:23:06;;;;;;;48.73;29.18;;;;;;;6.45;83.52;96483.12;1794498;80;20975;-83
2021/11/22 09:25:34;;;;;;;43.42;26.95;;;;;;;6.41;83.65;96489.08;1795149;80;21424;-82
2021/11/22 09:28:00;;;;;;;43.60;25.92;;;;;;;6.37;83.65;96485.19;1795262;80;20976;-83
2021/11/22 09:30:26;;;;;;;42.70;28.12;;;;;;;6.38;83.94;96491.97;1795238;80;21307;-83
2021/11/22 09:32:51;;;;;;;45.73;27.60;;;;;;;6.39;83.92;96492.78;1795124;80;20978;-83
2021/11/22 09:35:17;;;;;;;52.05;29.75;;;;;;;6.39;83.92;96492.78;1795323;80;20962;-83
2021/11/22 09:37:43;;;;;;;54.93;34.13;;;;;;;6.35;84.13;96492.28;1795223;80;20979;-83
2021/11/22 09:40:09;;;;;;;63.80;34.40;;;;;;;6.33;84.12;96492.89;1795131;80;21007;-83
2021/11/22 09:42:35;;;;;;;63.68;33.10;;;;;;;6.32;84.34;96496.43;1795352;80;20956;-83
2021/11/22 09:45:02;;;;;;;65.22;34.60;;;;;;;6.26;84.29;96490.12;1794963;80;21208;-83
2021/11/22 09:47:28;;;;;;;65.37;31.35;;;;;;;6.27;84.62;96492.22;1795351;80;21018;-83
2021/11/22 09:49:54;;;;;;;64.80;31.23;;;;;;;6.26;84.46;96490.59;1795320;80;20920;-82
2021/11/22 09:52:22;;;;;;;62.45;31.65;;;;;;;6.22;84.44;96499.12;1795158;80;21404;-83
2021/11/22 09:54:48;;;;;;;63.98;34.10;;;;;;;6.22;84.57;96496.55;1794862;80;20967;-82
2021/11/22 09:57:14;;;;;;;58.20;31.55;;;;;;;6.25;84.85;96496.72;1795118;80;21384;-83
2021/11/22 09:59:42;;;;;;;56.90;30.50;;;;;;;6.21;84.75;96500.09;1795090;80;21333;-83
2021/11/22 10:02:07;;;;;;;59.58;30.52;;;;;;;6.14;84.81;96504.70;1795268;80;21429;-83
2021/11/22 10:04:33;;;;;;;64.47;35.48;;;;;;;6.13;85.14;96501.80;1792407;80;21078;-83
2021/11/22 10:07:03;;;;;;;59.48;33.00;;;;;;;6.07;84.98;96504.98;1795378;80;21338;-83
2021/11/22 10:09:40;;;;;;;66.85;36.65;;;;;;;6.04;85.04;96497.55;1794276;80;21018;-83
2021/11/22 10:12:16;;;;;;;63.38;40.73;;;;;;;6.04;85.20;96506.58;1796689;80;21039;-83
2021/11/22 10:14:50;;;;;;;60.45;35.78;;;;;;;6.04;85.57;96498.84;1797830;80;21038;-82
2021/11/22 10:17:27;;;;;;;63.70;37.05;;;;;;;6.05;85.59;96499.17;1797997;80;21014;-83
2021/11/22 10:20:18;;;;;;;65.97;35.83;;;;;;;6.06;85.92;96500.79;1797846;80;21350;-82
2021/11/22 10:23:04;;;;;;;60.05;35.55;;;;;;;6.08;86.01;96504.03;1797840;80;20970;-83
2021/11/22 10:25:42;;;;;;;57.85;34.43;;;;;;;6.07;86.07;96499.34;1797999;80;21087;-82
2021/11/22 10:28:22;;;;;;;64.45;35.35;;;;;;;6.06;86.23;96502.08;1797893;80;21050;-82
2021/11/22 10:30:58;;;;;;;60.55;35.33;;;;;;;5.99;86.13;96503.95;1798021;80;20970;-83
2021/11/22 10:33:33;;;;;;;62.33;33.98;;;;;;;6.03;86.37;96508.84;1797953;80;20995;-83
2021/11/22 10:36:03;;;;;;;52.25;31.37;;;;;;;6.00;86.41;96513.78;1797830;80;21063;-82
2021/11/22 10:38:30;;;;;;;55.08;32.58;;;;;;;5.99;86.42;96505.23;1797962;80;20979;-82
2021/11/22 10:41:07;;;;;;;57.27;35.40;;;;;;;5.97;86.48;96508.94;1797891;80;20935;-82
2021/11/22 10:43:52;;;;;;;59.98;36.42;;;;;;;5.95;86.59;96510.37;1797924;80;21054;-82
2021/11/22 10:46:44;;;;;;;61.20;34.18;;;;;;;5.99;86.83;96505.72;1797951;80;21460;-83
2021/11/22 10:49:16;;;;;;;55.33;34.27;;;;;;;5.98;86.56;96510.55;1797980;80;21075;-83
2021/11/22 10:51:46;;;;;;;56.02;36.98;;;;;;;5.97;86.79;96518.77;1797984;80;20999;-83
2021/11/22 10:54:17;;;;;;;59.33;36.63;;;;;;;5.89;86.80;96516.11;1796979;80;21011;-83
2021/11/22 10:56:47;;;;;;;48.42;28.60;;;;;;;5.88;87.22;96515.78;1790256;80;20975;-83
2021/11/22 10:59:20;;;;;;;38.70;23.80;;;;;;;5.86;87.61;96524.63;1766561;81;20951;-82
2021/11/22 11:01:55;;;;;;;22.15;14.85;;;;;;;5.75;86.79;96526.14;1766527;81;20939;-82
2021/11/22 11:04:27;;;;;;;23.83;15.23;;;;;;;5.65;86.91;96531.36;1766590;81;20959;-82
2021/11/22 11:06:56;;;;;;;;;;;;;;;5.53;86.93;96531.23;1768946;81;21380;-82
2021/11/22 11:09:37;;;;;;;16.07;10.50;;;;;;;5.44;87.66;96530.36;1766188;80;20315;-82
2021/11/22 11:12:09;;;;;;;;;;;;;;;5.32;87.47;96542.63;1767423;81;20995;-82
2021/11/22 11:14:38;;;;;;;15.60;11.12;;;;;;;5.28;87.72;96541.31;1763837;81;20137;-82
2021/11/22 11:17:31;;;;;;;13.55;10.80;;;;;;;5.25;87.87;96542.89;1763825;81;21010;-82
2021/11/22 11:20:00;;;;;;;14.43;9.75;;;;;;;5.24;87.99;96549.48;1763972;81;20987;-82
2021/11/22 11:22:28;;;;;;;12.00;9.13;;;;;;;5.16;87.96;96545.03;1763865;81;20967;-82
2021/11/22 11:24:57;;;;;;;14.55;10.48;;;;;;;5.16;88.21;96550.66;1763870;81;20979;-82
2021/11/22 11:27:22;;;;;;;10.10;7.03;;;;;;;5.13;88.27;96551.77;1763636;81;21361;-82